Terminal Aerodrome Forecast
Issued by NWS

Home | Current Version | Previous Version | Graphics & Text | Print | Product List | Glossary Off
Versions: 1 2 3 4 5 6 7 8 9 10 11 12 13 14 15 16 17 18 19 20 21 22 23 24 25 26 27

000
FTUS43 KLOT 222335
TAFORD
TAF
KORD 222335Z 2300/2406 07011KT P6SM SCT015 OVC020
     FM230300 12012KT P6SM VCSH OVC008
     FM230700 14007KT 3SM -RA BR BKN004 OVC006
      TEMPO 2309/2313 1SM -RA BR OVC003
     FM231300 21007KT 5SM BR OVC008
     FM231600 26011KT P6SM OVC015
     FM231900 27012G18KT P6SM SCT015 OVC025
     FM240000 28007KT P6SM SCT020 BKN150
     FM240500 34005KT P6SM BKN100=

USA.gov is the U.S. government's official web portal to all federal, state and local government web resources and services.